Thursday, September 20, 2018, 12:56 PM EDT
Back to Local

KFMH, Otis Air National Guard Base

Location: Mashpee, MA, United States Lat: 41.65
Local Time: 12:56 PM EDT (16:56 GMT) Lon: -70.517
Time Zone: US/Eastern Elev: 131 ft

Show me the last for .
Show Decoded

2018-09-20 12:35 METAR KFMH 201635Z AUTO 02009KT 350V050 10SM SCT014 SCT019 OVC037 18/16 A3025
                 RMK AO2 =
2018-09-20 12:15 METAR KFMH 201615Z AUTO 04010G17KT 10SM SCT013 SCT019 SCT037 18/16 A3024 RMK AO2
                 =
2018-09-20 11:55 METAR KFMH 201555Z AUTO 04010G15KT 1 1/4SM -DZ SCT016 SCT024 SCT029 17/16 A3025
                 RMK AO2 =
2018-09-20 11:35 METAR KFMH 201535Z AUTO 03010G19KT 1 1/2SM -DZ SCT019 SCT024 BKN044 17/16 A3024
                 RMK AO2 VIS 1V2 =
2018-09-20 11:15 METAR KFMH 201515Z AUTO 04011G18KT 7SM FEW016 BKN021 OVC050 18/16 A3023 RMK AO2
                 =
2018-09-20 10:55 METAR KFMH 201455Z AUTO 03012KT 10SM BKN015 BKN021 BKN027 18/16 A3024 RMK AO2 =
2018-09-20 10:35 METAR KFMH 201435Z AUTO 03010G19KT 3SM BR SCT015 BKN022 BKN049 18/17 A3023 RMK
                 AO2 =
2018-09-20 10:15 METAR KFMH 201415Z AUTO 05013KT 10SM SCT015 BKN023 BKN043 18/16 A3022 RMK AO2 =
2018-09-20 09:55 METAR KFMH 201355Z AUTO 04009KT 5SM BR SCT014 BKN024 BKN030 18/17 A3021 RMK AO2
                 =
2018-09-20 09:35 METAR KFMH 201335Z AUTO 03007G13KT 10SM SCT012 BKN027 OVC048 18/16 A3021 RMK AO2
                 =
2018-09-20 09:15 METAR KFMH 201315Z AUTO 03009KT 10SM FEW013 SCT034 BKN043 17/16 A3020 RMK AO2 =
2018-09-20 08:55 METAR KFMH 201255Z AUTO 03005KT 10SM FEW010 SCT028 BKN034 17/17 A3020 RMK AO2 =
2018-09-20 08:35 METAR KFMH 201235Z AUTO 03007KT 5SM BR FEW006 SCT010 BKN014 16/16 A3018 RMK AO2
                 =
2018-09-20 08:15 METAR KFMH 201215Z AUTO 04007G13KT 1SM -RA BKN007 BKN014 BKN020 16/16 A3017 RMK
                 AO2 =
2018-09-20 07:55 METAR KFMH 201155Z AUTO 02008G14KT 10SM BKN006 BKN015 BKN020 16/16 A3017 RMK AO2
                 =
2018-09-20 07:35 METAR KFMH 201135Z AUTO 03008KT 3/4SM -DZ BKN007 BKN017 OVC027 16/16 A3016 RMK
                 AO2 =
2018-09-20 07:15 METAR KFMH 201115Z AUTO 03009KT 2SM -DZ SCT008 BKN018 BKN027 16/16 A3015 RMK AO2
                 =
2018-09-20 06:55 METAR KFMH 201055Z AUTO 03009KT 2 1/2SM BR BKN007 BKN013 BKN019 16/16 A3014 RMK
                 AO2 =
2018-09-20 06:35 METAR KFMH 201035Z AUTO 04010G16KT 1 1/2SM -DZ OVC006 16/16 A3013 RMK AO2 =
2018-09-20 06:15 METAR KFMH 201015Z AUTO 03011KT 1 1/2SM -DZ FEW003 OVC008 16/16 A3013 RMK AO2 =
2018-09-20 05:55 METAR KFMH 200955Z AUTO 02009G15KT 9SM BKN008 BKN016 OVC032 16/16 A3012 RMK AO2
                 =
2018-09-20 05:35 METAR KFMH 200935Z AUTO 02012G17KT 2 1/2SM -DZ BKN008 OVC013 16/16 A3011 RMK AO2
                 =
2018-09-20 05:15 METAR KFMH 200915Z AUTO 02009G18KT 5SM -DZ OVC010 16/15 A3011 RMK AO2 =
2018-09-20 04:55 METAR KFMH 200855Z AUTO 03010KT 6SM BR BKN009 OVC013 16/15 A3010 RMK AO2 =
2018-09-20 04:35 METAR KFMH 200835Z AUTO 01007G14KT 10SM FEW009 BKN014 OVC020 16/15 A3010 RMK AO2
                 =
2018-09-20 04:15 METAR KFMH 200815Z AUTO 02011G16KT 5SM BR BKN011 OVC018 16/15 A3010 RMK AO2 =
2018-09-20 03:55 METAR KFMH 200755Z AUTO 03009G15KT 5SM BR BKN010 OVC015 16/15 A3009 RMK AO2 =
2018-09-20 03:35 METAR KFMH 200735Z AUTO 02010G16KT 10SM OVC014 16/15 A3009 RMK AO2 =
2018-09-20 03:15 METAR KFMH 200715Z AUTO 03007G17KT 10SM BKN015 OVC037 16/14 A3008 RMK AO2 =
2018-09-20 02:55 METAR KFMH 200655Z AUTO 02009G14KT 10SM SCT015 BKN021 OVC040 16/14 A3009 RMK AO2
                 =
2018-09-20 02:35 METAR KFMH 200635Z AUTO 04014G19KT 10SM OVC019 16/14 A3009 RMK AO2 =
2018-09-20 02:15 METAR KFMH 200615Z AUTO 02009KT 10SM OVC020 16/14 A3009 RMK AO2 =
2018-09-20 01:55 METAR KFMH 200555Z AUTO 03010G16KT 10SM OVC021 16/14 A3009 RMK AO2 LTG DSNT S =
2018-09-20 01:35 METAR KFMH 200535Z AUTO 02009KT 10SM OVC019 16/14 A3009 RMK AO2 =
2018-09-20 01:15 METAR KFMH 200515Z AUTO 02010KT 10SM BKN017 16/13 A3009 RMK AO2 =
2018-09-20 00:55 METAR KFMH 200455Z AUTO 03010G17KT 10SM BKN017 16/13 A3008 RMK AO2 =
2018-09-20 00:35 METAR KFMH 200435Z AUTO 03011G16KT 10SM BKN018 16/14 A3007 RMK AO2 =
2018-09-20 00:15 METAR KFMH 200415Z AUTO 03012G19KT 10SM OVC019 16/13 A3006 RMK AO2 =
2018-09-19 23:55 METAR KFMH 200355Z AUTO 03015KT 10SM OVC019 16/13 A3006 RMK AO2 =
2018-09-19 23:35 METAR KFMH 200335Z AUTO 03013KT 10SM OVC020 16/13 A3007 RMK AO2 =
2018-09-19 23:15 METAR KFMH 200315Z AUTO 03011G20KT 10SM BKN018 OVC024 16/13 A3006 RMK AO2 =
2018-09-19 22:55 METAR KFMH 200255Z AUTO 03012G17KT 10SM BKN017 BKN023 BKN030 16/13 A3006 RMK AO2
                 =
2018-09-19 22:35 METAR KFMH 200235Z AUTO 03012KT 10SM SCT014 BKN020 OVC029 16/13 A3005 RMK AO2 =
2018-09-19 22:15 METAR KFMH 200215Z AUTO 03010KT 10SM SCT017 BKN023 BKN028 16/13 A3006 RMK AO2 =
2018-09-19 21:55 METAR KFMH 200155Z AUTO 03011KT 10SM BKN021 OVC026 16/13 A3005 RMK AO2 LTG DSNT
                 S =
2018-09-19 21:35 METAR KFMH 200135Z AUTO 03011G21KT 10SM OVC023 16/13 A3005 RMK AO2 =
2018-09-19 17:55 METAR KFMH 192155Z AUTO 01009G14KT 9SM BKN014 OVC019 16/14 A3000 RMK AO2 =
2018-09-19 17:35 METAR KFMH 192135Z AUTO 03009KT 10SM BKN014 OVC019 16/14 A2999 RMK AO2 =
2018-09-19 17:15 METAR KFMH 192115Z AUTO 02008G16KT 8SM OVC013 16/14 A2998 RMK AO2 =
2018-09-19 16:55 METAR KFMH 192055Z AUTO 03014KT 10SM OVC013 16/14 A2996 RMK AO2 =
2018-09-19 16:35 METAR KFMH 192035Z AUTO 02010G19KT 9SM OVC012 16/15 A2997 RMK AO2 =
2018-09-19 16:15 METAR KFMH 192015Z AUTO 04013G18KT 9SM BKN012 OVC016 16/15 A2997 RMK AO2 LTG
                 DSNT S =
2018-09-19 15:55 METAR KFMH 191955Z AUTO 03010G16KT 9SM OVC014 16/15 A2997 RMK AO2 =
2018-09-19 15:35 METAR KFMH 191935Z AUTO 03009G15KT 8SM BKN012 OVC017 17/15 A2996 RMK AO2 =
2018-09-19 15:15 METAR KFMH 191915Z AUTO 03012G17KT 2 1/2SM -DZ BKN012 BKN016 17/16 A2996 RMK AO2
                 =
2018-09-19 14:55 METAR KFMH 191855Z AUTO 03011G18KT 10SM OVC013 17/15 A2995 RMK AO2 =
2018-09-19 14:35 METAR KFMH 191835Z AUTO 03012G18KT 10SM OVC012 17/16 A2994 RMK AO2 =
2018-09-19 14:15 METAR KFMH 191815Z AUTO 03010G17KT 9SM OVC012 17/16 A2994 RMK AO2 =
2018-09-19 13:55 METAR KFMH 191755Z AUTO 03016G21KT 10SM BKN012 BKN017 18/17 A2994 RMK AO2 =
2018-09-19 13:35 METAR KFMH 191735Z AUTO 03011G17KT 8SM SCT012 17/17 A2995 RMK AO2 =
2018-09-19 13:15 METAR KFMH 191715Z AUTO 03012KT 2SM BR FEW006 FEW013 17/17 A2995 RMK AO2 =

Support USWX by starting your Amazon purchase here.